Time;durP1;ratioP1;P1;durP2;ratioP2;P2;SDS_P1;SDS_P2;PMS_P1;PMS_P2;Temp;Humidity;BMP_temperature;BMP_pressure;BME280_temperature;BME280_humidity;BME280_pressure;Samples;Min_cycle;Max_cycle;Signal;HPM_P1;HPM_P2
2022/03/30 00:00:06;;;;;;;46.28;18.65;;;;;;;;;;5026538;28;20060;-74
2022/03/30 00:02:31;;;;;;;45.95;18.33;;;;;;;;;;5016524;28;20531;-74
2022/03/30 00:04:57;;;;;;;42.40;18.13;;;;;;;;;;5007212;28;20033;-75
2022/03/30 00:07:22;;;;;;;41.90;18.20;;;;;;;;;;5001734;28;20034;-75
2022/03/30 00:09:47;;;;;;;43.25;19.00;;;;;;;;;;5001381;28;20474;-74
2022/03/30 00:12:13;;;;;;;41.97;18.95;;;;;;;;;;4993917;28;20092;-75
2022/03/30 00:14:39;;;;;;;43.22;19.33;;;;;;;;;;5008175;28;20460;-74
2022/03/30 00:17:05;;;;;;;48.30;20.58;;;;;;;;;;5006746;28;20080;-74
2022/03/30 00:19:31;;;;;;;47.25;18.95;;;;;;;;;;5008204;28;20032;-74
2022/03/30 00:21:57;;;;;;;43.30;19.80;;;;;;;;;;4994007;28;20038;-74
2022/03/30 00:24:23;;;;;;;44.72;18.77;;;;;;;;;;4996414;28;20050;-75
2022/03/30 00:26:48;;;;;;;43.95;19.00;;;;;;;;;;4994696;28;20038;-74
2022/03/30 00:29:14;;;;;;;43.03;19.23;;;;;;;;;;4997781;28;20076;-74
2022/03/30 00:31:40;;;;;;;45.90;19.13;;;;;;;;;;5006526;28;20032;-74
2022/03/30 00:34:05;;;;;;;39.97;18.27;;;;;;;;;;5007597;28;20038;-75
2022/03/30 00:36:30;;;;;;;45.90;18.70;;;;;;;;;;4989865;28;20129;-74
2022/03/30 00:38:56;;;;;;;43.22;18.13;;;;;;;;;;4988522;28;20034;-74
2022/03/30 00:41:21;;;;;;;40.92;17.75;;;;;;;;;;5007116;28;20101;-75
2022/03/30 00:43:46;;;;;;;39.20;17.88;;;;;;;;;;5018072;28;20021;-74
2022/03/30 00:46:12;;;;;;;46.63;20.55;;;;;;;;;;5015297;28;20065;-74
2022/03/30 00:48:38;;;;;;;41.50;17.35;;;;;;;;;;5007645;28;20037;-74
2022/03/30 00:51:04;;;;;;;43.60;18.08;;;;;;;;;;5005790;28;20084;-74
2022/03/30 00:53:29;;;;;;;45.47;19.13;;;;;;;;;;4988289;28;20042;-74
2022/03/30 00:55:55;;;;;;;44.53;18.55;;;;;;;;;;4988050;28;20061;-74
2022/03/30 00:58:22;;;;;;;43.17;18.75;;;;;;;;;;5005216;28;20030;-74
2022/03/30 01:00:48;;;;;;;45.42;18.73;;;;;;;;;;5007335;28;20037;-74
2022/03/30 01:03:13;;;;;;;41.95;18.30;;;;;;;;;;5006179;28;20065;-75
2022/03/30 01:05:39;;;;;;;44.78;19.48;;;;;;;;;;5005995;28;20060;-76
2022/03/30 01:08:05;;;;;;;39.50;16.63;;;;;;;;;;5007180;28;20048;-75
2022/03/30 01:10:31;;;;;;;43.20;19.60;;;;;;;;;;5007568;28;20037;-74
2022/03/30 01:12:56;;;;;;;40.35;18.73;;;;;;;;;;5005955;28;20030;-74
2022/03/30 01:15:23;;;;;;;42.83;19.55;;;;;;;;;;5017875;28;20042;-74
2022/03/30 01:17:48;;;;;;;39.72;18.00;;;;;;;;;;5007477;28;20088;-74
2022/03/30 01:20:16;;;;;;;42.53;18.95;;;;;;;;;;5006976;28;20034;-74
2022/03/30 01:22:42;;;;;;;53.38;19.17;;;;;;;;;;5001167;28;20223;-74
2022/03/30 01:25:08;;;;;;;45.75;19.13;;;;;;;;;;4999749;28;20530;-74
2022/03/30 01:27:34;;;;;;;46.80;19.40;;;;;;;;;;5001403;28;20045;-74
2022/03/30 01:32:53;;;;;;;47.35;20.27;;;;;;;;;;4987825;28;20089;-74
2022/03/30 01:35:18;;;;;;;41.00;18.33;;;;;;;;;;4991565;28;20076;-74
2022/03/30 01:37:43;;;;;;;46.38;19.90;;;;;;;;;;4991971;28;20438;-74
2022/03/30 01:40:09;;;;;;;40.20;18.25;;;;;;;;;;5000442;28;20068;-74
2022/03/30 01:42:35;;;;;;;44.33;19.70;;;;;;;;;;5004173;28;20133;-74
2022/03/30 01:45:01;;;;;;;44.30;19.10;;;;;;;;;;4991341;28;20034;-74
2022/03/30 01:47:26;;;;;;;47.42;18.13;;;;;;;;;;4991179;28;20031;-74
2022/03/30 01:49:52;;;;;;;44.70;18.95;;;;;;;;;;4991851;28;20037;-74
2022/03/30 01:52:18;;;;;;;44.83;19.38;;;;;;;;;;4999427;28;20074;-74
2022/03/30 01:54:44;;;;;;;44.85;19.05;;;;;;;;;;5010491;28;20054;-74
2022/03/30 01:57:14;;;;;;;41.55;19.73;;;;;;;;;;5011875;28;20034;-74
2022/03/30 01:59:41;;;;;;;45.70;18.63;;;;;;;;;;5011729;28;20030;-74
2022/03/30 02:02:07;;;;;;;53.38;20.25;;;;;;;;;;5010337;28;20042;-74
2022/03/30 02:04:33;;;;;;;45.28;18.30;;;;;;;;;;5011713;28;20080;-74
2022/03/30 02:06:58;;;;;;;47.05;19.42;;;;;;;;;;5009143;28;20042;-74
2022/03/30 02:09:23;;;;;;;51.42;18.90;;;;;;;;;;5010128;28;20037;-74
2022/03/30 02:11:50;;;;;;;46.97;19.38;;;;;;;;;;5009286;28;20060;-74
2022/03/30 02:14:16;;;;;;;44.25;18.23;;;;;;;;;;5010366;28;20072;-74
2022/03/30 02:16:41;;;;;;;47.63;18.73;;;;;;;;;;5012027;28;20036;-74
2022/03/30 02:19:07;;;;;;;44.10;18.23;;;;;;;;;;4998344;28;20026;-75
2022/03/30 02:21:32;;;;;;;39.70;16.73;;;;;;;;;;5005036;28;20030;-74
2022/03/30 02:23:57;;;;;;;42.20;17.88;;;;;;;;;;5011982;28;20044;-74
2022/03/30 02:26:23;;;;;;;43.63;18.80;;;;;;;;;;5008448;28;20041;-74
2022/03/30 02:28:51;;;;;;;43.90;18.30;;;;;;;;;;5002813;28;20022;-74
2022/03/30 02:31:19;;;;;;;43.97;19.05;;;;;;;;;;5024697;28;20034;-74
2022/03/30 02:33:45;;;;;;;45.55;18.38;;;;;;;;;;5014782;28;20037;-74
2022/03/30 02:36:11;;;;;;;46.22;18.15;;;;;;;;;;5022484;28;20102;-74
2022/03/30 02:38:36;;;;;;;47.40;17.38;;;;;;;;;;5008786;28;20487;-74
2022/03/30 02:41:03;;;;;;;42.17;17.40;;;;;;;;;;5000163;28;20542;-74
2022/03/30 02:43:28;;;;;;;46.22;18.95;;;;;;;;;;5007983;28;20116;-74
2022/03/30 02:45:54;;;;;;;45.17;17.95;;;;;;;;;;4994846;28;20680;-74
2022/03/30 02:48:19;;;;;;;49.10;18.65;;;;;;;;;;4986999;28;20058;-74
2022/03/30 02:50:47;;;;;;;54.97;18.23;;;;;;;;;;4994925;28;20052;-75
2022/03/30 02:53:13;;;;;;;45.70;18.20;;;;;;;;;;5011028;28;20026;-75
2022/03/30 02:55:38;;;;;;;42.50;17.60;;;;;;;;;;4982260;28;20034;-74
2022/03/30 02:58:04;;;;;;;45.25;17.48;;;;;;;;;;5000860;28;20431;-75
2022/03/30 03:00:30;;;;;;;46.35;17.42;;;;;;;;;;4988074;28;20429;-74
2022/03/30 03:02:56;;;;;;;46.33;18.20;;;;;;;;;;4970382;28;20156;-74
2022/03/30 03:05:21;;;;;;;46.08;18.40;;;;;;;;;;4990813;28;20484;-74
2022/03/30 03:07:47;;;;;;;48.70;18.45;;;;;;;;;;5011258;28;20072;-74
2022/03/30 03:10:12;;;;;;;48.58;19.13;;;;;;;;;;5008773;28;20041;-74
2022/03/30 03:12:38;;;;;;;45.58;18.40;;;;;;;;;;4999594;28;20057;-74
2022/03/30 03:15:03;;;;;;;49.95;17.58;;;;;;;;;;5010489;28;20448;-74
2022/03/30 03:17:29;;;;;;;43.35;17.63;;;;;;;;;;5007622;28;20030;-74
2022/03/30 03:19:54;;;;;;;42.58;18.10;;;;;;;;;;5012271;28;20030;-74
2022/03/30 03:22:19;;;;;;;46.30;17.70;;;;;;;;;;5016057;28;20084;-74
2022/03/30 03:24:45;;;;;;;43.05;17.38;;;;;;;;;;5025920;28;20038;-74
2022/03/30 03:27:10;;;;;;;49.33;19.02;;;;;;;;;;5014575;28;20033;-74
2022/03/30 03:29:35;;;;;;;46.20;17.92;;;;;;;;;;5010323;28;20033;-74
2022/03/30 03:32:01;;;;;;;49.90;19.13;;;;;;;;;;5010589;28;20113;-74
2022/03/30 03:34:26;;;;;;;45.08;19.05;;;;;;;;;;5008958;28;20773;-74
2022/03/30 03:36:51;;;;;;;42.80;17.35;;;;;;;;;;5009805;28;20164;-74
2022/03/30 03:39:17;;;;;;;46.00;17.98;;;;;;;;;;5010222;28;20044;-74
2022/03/30 03:41:43;;;;;;;46.55;19.15;;;;;;;;;;5009109;28;20038;-74
2022/03/30 03:44:09;;;;;;;43.78;17.30;;;;;;;;;;5004867;28;20030;-74
2022/03/30 03:46:35;;;;;;;48.83;18.60;;;;;;;;;;4991635;28;20050;-74
2022/03/30 03:49:00;;;;;;;46.47;18.05;;;;;;;;;;5001722;28;20046;-74
2022/03/30 03:51:26;;;;;;;45.50;17.73;;;;;;;;;;4994156;28;20470;-74
2022/03/30 03:53:51;;;;;;;43.40;17.27;;;;;;;;;;4997510;28;20891;-74
2022/03/30 03:56:17;;;;;;;45.03;17.10;;;;;;;;;;4986056;28;20137;-74
2022/03/30 03:58:42;;;;;;;47.45;18.23;;;;;;;;;;5005358;28;20025;-74
2022/03/30 04:01:07;;;;;;;43.75;17.92;;;;;;;;;;5002362;28;20046;-74
2022/03/30 04:03:32;;;;;;;45.65;17.23;;;;;;;;;;5008648;28;20038;-74
2022/03/30 04:05:58;;;;;;;42.58;17.50;;;;;;;;;;4990977;28;20066;-74
2022/03/30 04:08:23;;;;;;;42.72;17.92;;;;;;;;;;5008033;28;20442;-74
2022/03/30 04:10:49;;;;;;;46.50;17.30;;;;;;;;;;5000697;28;20084;-74
2022/03/30 04:13:14;;;;;;;46.22;18.67;;;;;;;;;;5007916;28;20041;-74
2022/03/30 04:15:39;;;;;;;43.70;17.92;;;;;;;;;;4992471;28;20120;-74
2022/03/30 04:18:07;;;;;;;46.83;18.20;;;;;;;;;;5000224;28;20034;-74
2022/03/30 04:20:33;;;;;;;51.35;17.90;;;;;;;;;;5005520;28;20535;-74
2022/03/30 04:22:59;;;;;;;42.38;16.75;;;;;;;;;;5020813;28;20029;-74
2022/03/30 04:25:24;;;;;;;45.08;18.02;;;;;;;;;;4997863;28;20046;-74
2022/03/30 04:27:51;;;;;;;42.60;15.98;;;;;;;;;;5000733;28;20081;-74
2022/03/30 04:30:19;;;;;;;43.13;16.90;;;;;;;;;;5007482;28;20076;-73
2022/03/30 04:32:45;;;;;;;44.88;17.45;;;;;;;;;;5007683;28;20034;-74
2022/03/30 04:35:11;;;;;;;41.00;16.42;;;;;;;;;;5005978;28;20037;-75
2022/03/30 04:37:38;;;;;;;46.88;17.35;;;;;;;;;;5008542;28;20044;-76
2022/03/30 04:40:04;;;;;;;45.13;17.40;;;;;;;;;;5007670;28;20076;-74
2022/03/30 04:42:29;;;;;;;43.45;17.23;;;;;;;;;;5008874;28;20038;-74
2022/03/30 04:44:54;;;;;;;41.00;17.90;;;;;;;;;;5008944;28;20428;-74
2022/03/30 04:47:20;;;;;;;43.75;17.30;;;;;;;;;;5009469;28;20099;-74
2022/03/30 04:49:45;;;;;;;44.53;17.10;;;;;;;;;;5009410;28;20098;-74
2022/03/30 04:52:10;;;;;;;44.75;16.60;;;;;;;;;;5012846;28;20042;-74
2022/03/30 04:54:36;;;;;;;48.15;17.42;;;;;;;;;;5006396;28;20046;-74
2022/03/30 04:57:01;;;;;;;46.92;17.83;;;;;;;;;;4999186;28;20039;-74
2022/03/30 04:59:27;;;;;;;47.83;17.55;;;;;;;;;;4988271;28;20512;-75
2022/03/30 05:01:52;;;;;;;47.78;17.83;;;;;;;;;;4989260;28;20043;-74
2022/03/30 05:04:17;;;;;;;47.92;18.27;;;;;;;;;;4996225;28;20037;-74
2022/03/30 05:06:43;;;;;;;48.28;17.95;;;;;;;;;;5008956;28;20512;-74
2022/03/30 05:09:08;;;;;;;42.78;16.92;;;;;;;;;;5010992;28;20037;-74
2022/03/30 05:11:33;;;;;;;43.42;17.33;;;;;;;;;;5011238;28;20581;-74
2022/03/30 05:13:59;;;;;;;43.85;17.00;;;;;;;;;;5011869;28;20436;-74
2022/03/30 05:16:24;;;;;;;47.05;18.38;;;;;;;;;;5011616;28;20038;-75
2022/03/30 05:18:49;;;;;;;43.67;17.77;;;;;;;;;;4992933;28;20034;-74
2022/03/30 05:21:15;;;;;;;50.90;18.38;;;;;;;;;;4994462;28;20030;-74
2022/03/30 05:23:40;;;;;;;50.42;17.50;;;;;;;;;;5028432;28;20040;-74
2022/03/30 05:26:06;;;;;;;45.88;17.17;;;;;;;;;;5031480;28;20800;-74
2022/03/30 05:28:31;;;;;;;44.97;17.58;;;;;;;;;;5013190;28;20180;-74
2022/03/30 05:30:57;;;;;;;49.90;19.05;;;;;;;;;;5012484;28;20535;-74
2022/03/30 05:33:22;;;;;;;50.58;19.75;;;;;;;;;;5002821;28;20049;-74
2022/03/30 05:35:50;;;;;;;48.88;17.95;;;;;;;;;;5010410;28;20033;-74
2022/03/30 05:38:16;;;;;;;51.33;19.65;;;;;;;;;;5012463;28;20033;-74
2022/03/30 05:40:42;;;;;;;53.35;19.90;;;;;;;;;;5012750;28;20017;-74
2022/03/30 05:43:08;;;;;;;45.75;17.90;;;;;;;;;;5017883;28;20033;-74
2022/03/30 05:45:34;;;;;;;52.00;18.17;;;;;;;;;;5024655;28;20026;-74
2022/03/30 05:47:59;;;;;;;44.22;18.27;;;;;;;;;;4998364;28;20558;-74
2022/03/30 05:50:25;;;;;;;50.45;19.60;;;;;;;;;;5005125;28;20041;-75
2022/03/30 05:52:51;;;;;;;48.50;19.13;;;;;;;;;;5012330;28;20380;-74
2022/03/30 05:55:17;;;;;;;46.50;18.23;;;;;;;;;;5006691;28;20515;-74
2022/03/30 05:57:42;;;;;;;51.42;19.98;;;;;;;;;;5015835;28;20045;-75
2022/03/30 06:00:08;;;;;;;45.80;19.33;;;;;;;;;;5011373;28;20030;-75
2022/03/30 06:02:34;;;;;;;46.08;16.95;;;;;;;;;;5010983;28;20121;-75
2022/03/30 06:05:00;;;;;;;46.55;18.38;;;;;;;;;;5006456;28;20105;-76
2022/03/30 06:07:25;;;;;;;50.03;17.63;;;;;;;;;;4989478;28;20042;-75
2022/03/30 06:09:50;;;;;;;49.72;18.25;;;;;;;;;;5008642;28;20038;-75
2022/03/30 06:12:16;;;;;;;42.95;17.63;;;;;;;;;;5010597;28;20038;-76
2022/03/30 06:14:42;;;;;;;47.75;18.38;;;;;;;;;;5008858;28;20507;-75
2022/03/30 06:17:08;;;;;;;53.75;20.08;;;;;;;;;;5010691;28;20525;-75
2022/03/30 06:19:34;;;;;;;44.78;19.58;;;;;;;;;;4992110;28;20033;-75
2022/03/30 06:22:01;;;;;;;47.78;19.00;;;;;;;;;;4997634;28;20488;-75
2022/03/30 06:24:27;;;;;;;50.65;19.08;;;;;;;;;;4998051;28;20061;-75
2022/03/30 06:26:52;;;;;;;48.00;18.67;;;;;;;;;;5002443;28;20033;-75
2022/03/30 06:29:18;;;;;;;57.47;19.25;;;;;;;;;;5010331;28;20385;-76
2022/03/30 06:31:43;;;;;;;49.70;18.17;;;;;;;;;;5010565;28;20503;-76
2022/03/30 06:34:08;;;;;;;49.10;18.88;;;;;;;;;;4993482;28;20030;-75
2022/03/30 06:36:37;;;;;;;39.53;16.42;;;;;;;;;;4999697;28;20034;-75
2022/03/30 06:39:03;;;;;;;47.90;18.35;;;;;;;;;;4998246;28;20116;-76
2022/03/30 06:41:28;;;;;;;44.70;14.40;;;;;;;;;;5010158;28;20030;-75
2022/03/30 06:43:54;;;;;;;41.40;16.50;;;;;;;;;;4999982;28;20073;-75
2022/03/30 06:46:19;;;;;;;52.75;19.33;;;;;;;;;;5000395;28;20042;-75
2022/03/30 06:48:45;;;;;;;48.13;19.02;;;;;;;;;;5008607;28;20088;-75
2022/03/30 06:51:12;;;;;;;51.17;19.00;;;;;;;;;;5009266;28;20038;-76
2022/03/30 06:53:38;;;;;;;51.58;18.58;;;;;;;;;;5005758;28;20026;-75
2022/03/30 06:56:03;;;;;;;44.45;17.80;;;;;;;;;;5009042;28;20108;-76
2022/03/30 06:58:29;;;;;;;46.30;17.80;;;;;;;;;;5016990;28;20034;-76
2022/03/30 07:00:56;;;;;;;45.77;18.10;;;;;;;;;;4970994;28;1103145;-76
2022/03/30 07:03:25;;;;;;;37.80;15.73;;;;;;;;;;5006300;28;20073;-75
2022/03/30 07:05:51;;;;;;;48.95;18.45;;;;;;;;;;5006995;28;20116;-76
2022/03/30 07:11:00;;;;;;;;;;;;;;;;;;5006385;28;20514;-75
2022/03/30 07:13:25;;;;;;;39.33;16.10;;;;;;;;;;5009430;28;19926;-75
2022/03/30 07:15:50;;;;;;;42.83;17.08;;;;;;;;;;5009968;28;20042;-76
2022/03/30 07:18:16;;;;;;;43.10;16.02;;;;;;;;;;5009689;28;20470;-76
2022/03/30 07:20:42;;;;;;;42.88;17.95;;;;;;;;;;5007351;28;20204;-75
2022/03/30 07:23:10;;;;;;;52.90;19.10;;;;;;;;;;5002869;28;20026;-75
2022/03/30 07:25:36;;;;;;;40.20;16.75;;;;;;;;;;4999939;28;20042;-75
2022/03/30 07:28:03;;;;;;;47.47;16.38;;;;;;;;;;5007301;28;20045;-75
2022/03/30 07:30:30;;;;;;;43.05;17.45;;;;;;;;;;5001775;28;20031;-75
2022/03/30 07:32:56;;;;;;;44.88;17.58;;;;;;;;;;5002551;28;20044;-75
2022/03/30 07:35:24;;;;;;;60.78;18.75;;;;;;;;;;5003202;28;20034;-75
2022/03/30 07:37:50;;;;;;;45.33;16.85;;;;;;;;;;4999518;28;20487;-75
2022/03/30 07:40:18;;;;;;;42.17;16.98;;;;;;;;;;5002856;28;20655;-75
2022/03/30 07:42:45;;;;;;;41.47;17.13;;;;;;;;;;5000392;28;20042;-75
2022/03/30 07:45:11;;;;;;;43.95;16.73;;;;;;;;;;5005196;28;20061;-75
2022/03/30 07:47:36;;;;;;;38.85;16.15;;;;;;;;;;5006268;28;20062;-76
2022/03/30 07:50:04;;;;;;;41.15;16.95;;;;;;;;;;5004129;28;20033;-75
2022/03/30 07:52:29;;;;;;;45.05;18.00;;;;;;;;;;4993864;28;20049;-75
2022/03/30 07:54:55;;;;;;;43.90;16.58;;;;;;;;;;5007905;28;20030;-75
2022/03/30 07:57:26;;;;;;;39.47;15.90;;;;;;;;;;4998334;28;20042;-75
2022/03/30 07:59:59;;;;;;;45.08;17.08;;;;;;;;;;5007149;28;20068;-75
2022/03/30 08:02:27;;;;;;;39.40;16.92;;;;;;;;;;5004815;28;20034;-75
2022/03/30 08:04:53;;;;;;;46.58;17.80;;;;;;;;;;5006592;28;20042;-75
2022/03/30 08:07:18;;;;;;;46.08;16.85;;;;;;;;;;5001554;28;20091;-75
2022/03/30 08:09:44;;;;;;;41.80;16.58;;;;;;;;;;4999347;28;20038;-75
2022/03/30 08:12:11;;;;;;;38.97;14.60;;;;;;;;;;5005931;28;20077;-76
2022/03/30 08:14:36;;;;;;;46.45;17.33;;;;;;;;;;5008307;28;20041;-76
2022/03/30 08:17:02;;;;;;;37.15;17.20;;;;;;;;;;5007839;28;20030;-76
2022/03/30 08:19:27;;;;;;;41.13;15.82;;;;;;;;;;5008865;28;20543;-75
2022/03/30 08:24:36;;;;;;;;;;;;;;;;;;5004115;28;20529;-75
2022/03/30 08:27:04;;;;;;;39.67;15.55;;;;;;;;;;4999073;28;19925;-75
2022/03/30 08:29:29;;;;;;;38.45;14.75;;;;;;;;;;5003146;28;20048;-75
2022/03/30 08:31:55;;;;;;;38.67;14.75;;;;;;;;;;5000384;28;20030;-75
2022/03/30 08:34:20;;;;;;;37.95;16.00;;;;;;;;;;4999913;28;20038;-75
2022/03/30 08:36:45;;;;;;;37.83;15.02;;;;;;;;;;4998546;28;20038;-75
2022/03/30 08:39:11;;;;;;;38.80;16.45;;;;;;;;;;5003569;28;20605;-75
2022/03/30 08:41:45;;;;;;;35.55;14.00;;;;;;;;;;4993663;28;20046;-75
2022/03/30 08:44:14;;;;;;;;;;;;;;;;;;5007069;28;20030;-75
2022/03/30 08:46:41;;;;;;;33.10;14.10;;;;;;;;;;5007724;28;19914;-75
2022/03/30 08:49:06;;;;;;;34.67;13.32;;;;;;;;;;5008149;28;20152;-75
2022/03/30 08:51:36;;;;;;;34.28;15.30;;;;;;;;;;5000592;28;20519;-75
2022/03/30 08:54:01;;;;;;;34.88;14.15;;;;;;;;;;5003579;28;20041;-73
2022/03/30 08:56:28;;;;;;;35.10;15.68;;;;;;;;;;4990790;28;20072;-73
2022/03/30 08:59:08;;;;;;;38.83;14.35;;;;;;;;;;4986433;28;20061;-73
2022/03/30 09:01:36;;;;;;;34.03;15.07;;;;;;;;;;4970196;28;20142;-73
2022/03/30 09:04:04;;;;;;;38.75;15.43;;;;;;;;;;4998160;28;20061;-76
2022/03/30 09:06:41;;;;;;;36.85;14.00;;;;;;;;;;5000150;28;20075;-76
2022/03/30 09:09:07;;;;;;;31.55;12.38;;;;;;;;;;5008487;28;20034;-76
2022/03/30 09:11:41;;;;;;;35.33;14.18;;;;;;;;;;5006677;28;20096;-75
2022/03/30 09:14:12;;;;;;;41.88;14.73;;;;;;;;;;5003450;28;20030;-76
2022/03/30 09:16:47;;;;;;;32.65;13.00;;;;;;;;;;5006636;28;20053;-71
2022/03/30 09:19:14;;;;;;;31.88;13.70;;;;;;;;;;5005074;28;20046;-70
2022/03/30 09:21:54;;;;;;;38.22;13.98;;;;;;;;;;5004285;28;20033;-71
2022/03/30 09:24:22;;;;;;;34.58;12.75;;;;;;;;;;4991448;28;20583;-71
2022/03/30 09:26:50;;;;;;;31.73;14.20;;;;;;;;;;4987115;28;20057;-71
2022/03/30 09:29:18;;;;;;;40.58;15.80;;;;;;;;;;4994687;28;20504;-71
2022/03/30 09:31:45;;;;;;;32.65;13.15;;;;;;;;;;4996991;28;20042;-71
2022/03/30 09:34:11;;;;;;;36.85;15.30;;;;;;;;;;4996055;28;20582;-71
2022/03/30 09:36:39;;;;;;;30.73;12.25;;;;;;;;;;4994423;28;20125;-71
2022/03/30 09:39:06;;;;;;;34.38;12.02;;;;;;;;;;4996001;28;20105;-71
2022/03/30 09:41:45;;;;;;;24.98;11.00;;;;;;;;;;4993876;28;20062;-71
2022/03/30 09:44:11;;;;;;;30.55;13.18;;;;;;;;;;4996855;28;20129;-71
2022/03/30 09:46:51;;;;;;;34.80;14.10;;;;;;;;;;5000307;28;20112;-72
2022/03/30 09:49:38;;;;;;;30.67;13.18;;;;;;;;;;5005199;28;20057;-71
2022/03/30 09:52:15;;;;;;;31.58;12.32;;;;;;;;;;4997041;28;20069;-68
2022/03/30 09:54:42;;;;;;;30.35;12.75;;;;;;;;;;5005982;28;20148;-71
2022/03/30 09:57:22;;;;;;;31.60;13.10;;;;;;;;;;4994286;28;20046;-71
2022/03/30 10:00:15;;;;;;;26.65;11.70;;;;;;;;;;5006118;28;20498;-73
2022/03/30 10:02:52;;;;;;;28.20;12.27;;;;;;;;;;4998771;28;20093;-75
2022/03/30 10:05:21;;;;;;;32.53;13.43;;;;;;;;;;5008103;28;20034;-79
2022/03/30 10:07:47;;;;;;;29.38;13.10;;;;;;;;;;5008770;28;20533;-79
2022/03/30 10:10:17;;;;;;;31.25;13.43;;;;;;;;;;5008775;28;20543;-72
2022/03/30 10:12:43;;;;;;;29.10;12.77;;;;;;;;;;5024314;28;20060;-71
2022/03/30 10:15:11;;;;;;;33.35;13.68;;;;;;;;;;5029305;28;20051;-76
2022/03/30 10:17:37;;;;;;;30.40;13.52;;;;;;;;;;5020885;28;20072;-75
2022/03/30 10:20:04;;;;;;;29.90;12.93;;;;;;;;;;5005949;28;20054;-77
2022/03/30 10:22:44;;;;;;;29.55;13.70;;;;;;;;;;4993841;28;20030;-75
2022/03/30 10:25:17;;;;;;;25.67;11.65;;;;;;;;;;5008170;28;20770;-72
2022/03/30 10:28:07;;;;;;;28.58;12.75;;;;;;;;;;5013791;28;20523;-73
2022/03/30 10:30:33;;;;;;;29.88;12.55;;;;;;;;;;5003755;28;20048;-71
2022/03/30 10:33:01;;;;;;;32.03;12.55;;;;;;;;;;5005599;28;20141;-72
2022/03/30 10:35:40;;;;;;;30.52;12.15;;;;;;;;;;5008472;28;20605;-72
2022/03/30 10:38:06;;;;;;;31.67;12.63;;;;;;;;;;4996924;28;20676;-72
2022/03/30 10:40:32;;;;;;;32.20;13.50;;;;;;;;;;5005998;28;20480;-73
2022/03/30 10:43:00;;;;;;;32.38;13.18;;;;;;;;;;5001984;28;20045;-72
2022/03/30 10:45:28;;;;;;;28.58;11.38;;;;;;;;;;5005192;28;20197;-73
2022/03/30 10:48:08;;;;;;;29.88;13.02;;;;;;;;;;5007116;28;20045;-73
2022/03/30 10:50:35;;;;;;;31.15;13.18;;;;;;;;;;5009196;28;20042;-72
2022/03/30 10:53:00;;;;;;;24.27;10.93;;;;;;;;;;5008809;28;20828;-72
2022/03/30 10:55:25;;;;;;;30.50;12.55;;;;;;;;;;5006602;28;20057;-73
2022/03/30 10:57:58;;;;;;;27.55;13.75;;;;;;;;;;5008902;28;20041;-73
2022/03/30 11:00:27;;;;;;;29.45;12.48;;;;;;;;;;5005723;28;20045;-72
2022/03/30 11:03:06;;;;;;;26.85;12.20;;;;;;;;;;5005864;28;20550;-78
2022/03/30 11:05:31;;;;;;;31.70;13.05;;;;;;;;;;5006779;28;20048;-72
2022/03/30 11:07:56;;;;;;;28.85;12.93;;;;;;;;;;5007232;28;20037;-75
2022/03/30 11:10:27;;;;;;;30.55;13.32;;;;;;;;;;5001791;28;20145;-76
2022/03/30 11:12:57;;;;;;;35.40;14.18;;;;;;;;;;5007481;28;20042;-73
2022/03/30 11:15:23;;;;;;;33.83;13.40;;;;;;;;;;5008215;28;20148;-75
2022/03/30 11:17:48;;;;;;;30.45;12.73;;;;;;;;;;5007591;28;20709;-74
2022/03/30 11:20:16;;;;;;;29.85;11.85;;;;;;;;;;5008435;28;20048;-75
2022/03/30 11:22:44;;;;;;;28.13;13.45;;;;;;;;;;4997937;28;20024;-75
2022/03/30 11:25:10;;;;;;;29.33;11.95;;;;;;;;;;4989859;28;20042;-75
2022/03/30 11:27:36;;;;;;;22.10;9.60;;;;;;;;;;4995523;28;20052;-75
2022/03/30 11:30:09;;;;;;;30.15;12.30;;;;;;;;;;4994073;28;20105;-76
2022/03/30 11:33:02;;;;;;;23.75;12.13;;;;;;;;;;4995571;28;20523;-76
2022/03/30 11:35:33;;;;;;;34.22;15.55;;;;;;;;;;4983857;28;20061;-77
2022/03/30 11:38:22;;;;;;;28.27;12.38;;;;;;;;;;5006804;28;20179;-76
2022/03/30 11:40:49;;;;;;;25.65;11.93;;;;;;;;;;5026175;28;20419;-77
2022/03/30 11:43:17;;;;;;;26.98;12.05;;;;;;;;;;4994995;28;20038;-82
2022/03/30 11:45:43;;;;;;;27.30;11.30;;;;;;;;;;4989544;28;20054;-78
2022/03/30 11:48:11;;;;;;;26.65;11.75;;;;;;;;;;4999535;28;20072;-77
2022/03/30 11:50:44;;;;;;;23.23;11.82;;;;;;;;;;5005025;28;20466;-75
2022/03/30 11:53:22;;;;;;;28.20;11.18;;;;;;;;;;4989876;28;20440;-76
2022/03/30 11:55:55;;;;;;;26.65;11.30;;;;;;;;;;4996780;28;20025;-76
2022/03/30 11:58:38;;;;;;;27.10;11.55;;;;;;;;;;5002768;28;20042;-76
2022/03/30 12:01:06;;;;;;;20.80;9.82;;;;;;;;;;5001606;28;20582;-77
2022/03/30 12:03:32;;;;;;;23.70;10.77;;;;;;;;;;4999637;28;20519;-77
2022/03/30 12:06:00;;;;;;;29.27;12.80;;;;;;;;;;5006050;28;20827;-75
2022/03/30 12:08:27;;;;;;;27.48;11.50;;;;;;;;;;5004104;28;20042;-74
2022/03/30 12:11:02;;;;;;;28.90;12.10;;;;;;;;;;5006954;28;20478;-75
2022/03/30 12:13:28;;;;;;;25.17;11.48;;;;;;;;;;5005546;28;20042;-75
2022/03/30 12:16:05;;;;;;;21.05;10.18;;;;;;;;;;5003015;28;20570;-75
2022/03/30 12:18:31;;;;;;;21.60;10.07;;;;;;;;;;4989652;28;20049;-75
2022/03/30 12:21:02;;;;;;;23.35;10.25;;;;;;;;;;4989201;28;20041;-76
2022/03/30 12:23:28;;;;;;;22.65;8.82;;;;;;;;;;4988310;28;20221;-75
2022/03/30 12:25:53;;;;;;;26.08;10.30;;;;;;;;;;4987547;28;20042;-78
2022/03/30 12:28:32;;;;;;;20.80;9.85;;;;;;;;;;5000039;28;20133;-76
2022/03/30 12:30:58;;;;;;;19.17;7.72;;;;;;;;;;5006953;28;20034;-76
2022/03/30 12:33:24;;;;;;;23.58;10.30;;;;;;;;;;4996041;28;20045;-74
2022/03/30 12:35:52;;;;;;;18.92;7.07;;;;;;;;;;5001738;28;20034;-73
2022/03/30 12:38:21;;;;;;;22.77;9.88;;;;;;;;;;4986594;28;20037;-74
2022/03/30 12:40:52;;;;;;;21.10;8.85;;;;;;;;;;4987039;28;20089;-76
2022/03/30 12:43:22;;;;;;;26.02;10.13;;;;;;;;;;4994423;28;20598;-67
2022/03/30 12:45:57;;;;;;;19.58;10.38;;;;;;;;;;5002869;28;20030;-75
2022/03/30 12:48:27;;;;;;;22.02;10.00;;;;;;;;;;4995614;28;20034;-74
2022/03/30 12:50:53;;;;;;;21.25;10.15;;;;;;;;;;5005962;28;20044;-74
2022/03/30 12:53:20;;;;;;;20.75;9.73;;;;;;;;;;4998947;28;20129;-73
2022/03/30 12:55:51;;;;;;;19.83;9.15;;;;;;;;;;4999650;28;20318;-75
2022/03/30 12:58:20;;;;;;;20.60;10.07;;;;;;;;;;5000851;28;20049;-76
2022/03/30 13:00:55;;;;;;;23.52;9.70;;;;;;;;;;5001544;28;20033;-73
2022/03/30 13:03:24;;;;;;;23.23;10.20;;;;;;;;;;5005441;28;20065;-74
2022/03/30 13:06:08;;;;;;;27.63;10.57;;;;;;;;;;5001225;28;20069;-72
2022/03/30 13:08:34;;;;;;;23.92;10.60;;;;;;;;;;4999792;28;20117;-73
2022/03/30 13:11:06;;;;;;;20.30;9.90;;;;;;;;;;4993086;28;20041;-80
2022/03/30 13:13:43;;;;;;;22.00;9.65;;;;;;;;;;4995394;28;20146;-77
2022/03/30 13:16:10;;;;;;;20.52;9.40;;;;;;;;;;4995329;28;20133;-74
2022/03/30 13:18:36;;;;;;;21.02;10.60;;;;;;;;;;5000019;28;20046;-76
2022/03/30 13:21:22;;;;;;;18.95;9.27;;;;;;;;;;5002167;28;20049;-79
2022/03/30 13:23:50;;;;;;;22.80;9.50;;;;;;;;;;4990814;28;21001;-78
2022/03/30 13:26:24;;;;;;;19.27;9.25;;;;;;;;;;4990726;28;20030;-74
2022/03/30 13:28:50;;;;;;;20.88;9.20;;;;;;;;;;4993229;28;20030;-76
2022/03/30 13:31:18;;;;;;;21.85;9.30;;;;;;;;;;4992284;28;20077;-82
2022/03/30 13:33:45;;;;;;;19.20;8.93;;;;;;;;;;4999811;28;20048;-78
2022/03/30 13:36:11;;;;;;;21.98;9.43;;;;;;;;;;5008678;28;20404;-76
2022/03/30 13:38:37;;;;;;;17.42;8.93;;;;;;;;;;5006517;28;20053;-78
2022/03/30 13:41:02;;;;;;;18.42;9.45;;;;;;;;;;5011232;28;20546;-73
2022/03/30 13:43:28;;;;;;;18.48;8.90;;;;;;;;;;5009976;28;20062;-73
2022/03/30 13:45:53;;;;;;;21.27;9.55;;;;;;;;;;5008358;28;20041;-80
2022/03/30 13:48:18;;;;;;;25.05;10.05;;;;;;;;;;5007654;28;20041;-76
2022/03/30 13:50:44;;;;;;;23.17;10.65;;;;;;;;;;5008609;28;20044;-74
2022/03/30 13:53:09;;;;;;;22.13;9.88;;;;;;;;;;5009678;28;20034;-77
2022/03/30 13:55:35;;;;;;;23.45;10.38;;;;;;;;;;5010023;28;20096;-75
2022/03/30 13:58:01;;;;;;;23.67;10.63;;;;;;;;;;5007439;28;20038;-74
2022/03/30 14:00:28;;;;;;;19.70;9.70;;;;;;;;;;5005759;28;20046;-76
2022/03/30 14:02:55;;;;;;;23.35;10.85;;;;;;;;;;5006959;28;20046;-76
2022/03/30 14:05:21;;;;;;;25.30;10.50;;;;;;;;;;5002292;28;21459;-72
2022/03/30 14:07:46;;;;;;;21.88;10.25;;;;;;;;;;5009166;28;20030;-74
2022/03/30 14:10:11;;;;;;;26.52;11.27;;;;;;;;;;5009329;28;20124;-73
2022/03/30 14:12:37;;;;;;;27.15;11.13;;;;;;;;;;5011081;28;20137;-72
2022/03/30 14:15:04;;;;;;;21.33;10.55;;;;;;;;;;5014079;28;20046;-72
2022/03/30 14:17:30;;;;;;;22.98;10.57;;;;;;;;;;5008930;28;20041;-71
2022/03/30 14:19:55;;;;;;;30.95;12.02;;;;;;;;;;5004169;28;20604;-72
2022/03/30 14:22:21;;;;;;;22.67;10.15;;;;;;;;;;4998399;28;20038;-72
2022/03/30 14:24:46;;;;;;;14.60;6.80;;;;;;;;;;5008647;28;20096;-70
2022/03/30 14:27:13;;;;;;;20.02;9.15;;;;;;;;;;5002035;28;20116;-70